createdAt,value
2023-10-28T00:00:30.865Z,97.44
2023-10-28T00:01:30.858Z,97.44
2023-10-28T00:02:30.849Z,97.44
2023-10-28T00:03:30.870Z,97.54
2023-10-28T00:04:30.821Z,97.54
2023-10-28T00:05:30.816Z,97.44
2023-10-28T00:06:30.798Z,97.54
2023-10-28T00:07:30.804Z,97.44
2023-10-28T00:08:30.787Z,97.44
2023-10-28T00:09:30.763Z,97.44
2023-10-28T00:10:30.753Z,97.54
2023-10-28T00:11:30.756Z,97.54
2023-10-28T00:12:30.749Z,97.64
2023-10-28T00:13:30.727Z,97.64
2023-10-28T00:14:30.716Z,97.64
2023-10-28T00:15:30.705Z,97.54
2023-10-28T00:16:30.700Z,97.54
2023-10-28T00:17:30.730Z,97.44
2023-10-28T00:18:30.675Z,97.54
2023-10-28T00:19:30.664Z,97.44
2023-10-28T00:20:30.762Z,97.44
2023-10-28T00:21:30.667Z,97.33
2023-10-28T00:22:30.645Z,97.33
2023-10-28T00:23:30.624Z,97.33
2023-10-28T00:24:30.630Z,97.19
2023-10-28T00:25:30.597Z,97.19
2023-10-28T00:26:30.619Z,97.29
2023-10-28T00:27:30.573Z,97.29
2023-10-28T00:28:30.560Z,97.29
2023-10-28T00:29:30.568Z,97.29
2023-10-28T00:30:30.558Z,97.29
2023-10-28T00:31:30.586Z,97.19
2023-10-28T00:32:30.516Z,97.08
2023-10-28T00:33:30.512Z,97.19
2023-10-28T00:34:30.496Z,97.08
2023-10-28T00:35:30.518Z,97.08
2023-10-28T00:36:30.479Z,97.08
2023-10-28T00:37:30.477Z,97.08
2023-10-28T00:38:30.468Z,96.98
2023-10-28T00:39:30.448Z,96.98
2023-10-28T00:40:30.464Z,96.98
2023-10-28T00:41:30.430Z,96.98
2023-10-28T00:42:30.410Z,96.88
2023-10-28T00:43:30.406Z,96.78
2023-10-28T00:44:30.417Z,96.67
2023-10-28T00:45:30.426Z,96.67
2023-10-28T00:46:30.367Z,96.57
2023-10-28T00:47:30.378Z,96.57
2023-10-28T00:48:30.356Z,96.47
2023-10-28T00:49:30.357Z,96.37
2023-10-28T00:50:30.325Z,96.26
2023-10-28T00:51:30.321Z,96.26
2023-10-28T00:52:30.305Z,96.26
2023-10-28T00:53:30.308Z,96.26
2023-10-28T00:54:30.301Z,96.26
2023-10-28T00:55:30.301Z,96.37
2023-10-28T00:56:30.264Z,96.26
2023-10-28T00:57:30.257Z,96.41
2023-10-28T00:58:30.244Z,96.41
2023-10-28T00:59:30.261Z,96.31
2023-10-28T01:00:30.222Z,96.31
2023-10-28T01:01:30.249Z,96.31
2023-10-28T01:02:30.268Z,96.31
2023-10-28T01:03:30.396Z,96.20
2023-10-28T01:04:30.197Z,96.31
2023-10-28T01:05:30.175Z,96.20
2023-10-28T01:06:30.156Z,96.20
2023-10-28T01:07:30.157Z,96.20
2023-10-28T01:08:30.179Z,96.20
2023-10-28T01:09:30.137Z,96.20
2023-10-28T01:10:30.136Z,96.10
2023-10-28T01:11:30.110Z,96.20
2023-10-28T01:12:30.092Z,96.20
2023-10-28T01:13:30.109Z,96.20
2023-10-28T01:14:30.077Z,96.31
2023-10-28T01:15:30.084Z,96.31
2023-10-28T01:16:30.061Z,96.41
2023-10-28T01:17:30.123Z,96.41
2023-10-28T01:18:30.220Z,96.51
2023-10-28T01:19:30.021Z,96.51
2023-10-28T01:20:30.010Z,96.62
2023-10-28T01:21:30.003Z,96.62
2023-10-28T01:22:30.003Z,96.62
2023-10-28T01:23:29.982Z,96.62
2023-10-28T01:24:29.968Z,96.62
2023-10-28T01:25:29.973Z,96.62
2023-10-28T01:26:29.962Z,96.51
2023-10-28T01:27:29.958Z,96.62
2023-10-28T01:28:29.925Z,96.51
2023-10-28T01:29:29.938Z,96.62
2023-10-28T01:30:29.905Z,96.62
2023-10-28T01:31:29.931Z,96.62
2023-10-28T01:32:29.912Z,96.62
2023-10-28T01:33:29.885Z,96.62
2023-10-28T01:34:29.895Z,96.62
2023-10-28T01:35:29.891Z,96.62
2023-10-28T01:36:29.854Z,96.62
2023-10-28T01:37:29.834Z,96.82
2023-10-28T01:38:29.828Z,96.72
2023-10-28T01:39:29.811Z,96.72
2023-10-28T01:40:29.820Z,96.67
2023-10-28T01:41:29.806Z,96.57
2023-10-28T01:42:29.776Z,96.57
2023-10-28T01:43:29.771Z,96.57
2023-10-28T01:44:29.753Z,96.57
2023-10-28T01:45:29.817Z,96.62
2023-10-28T01:46:29.734Z,96.62
2023-10-28T01:47:29.762Z,96.57
2023-10-28T01:48:29.712Z,96.57
2023-10-28T01:49:29.705Z,96.67
2023-10-28T01:50:29.712Z,96.72
2023-10-28T01:51:29.697Z,96.67
2023-10-28T01:52:29.671Z,96.72
2023-10-28T01:53:29.668Z,96.82
2023-10-28T01:54:29.668Z,96.82
2023-10-28T01:55:29.673Z,96.82
2023-10-28T01:56:29.630Z,96.82
2023-10-28T01:57:29.646Z,96.78
2023-10-28T01:58:29.650Z,96.88
2023-10-28T01:59:29.616Z,96.88
2023-10-28T02:00:29.589Z,96.88
2023-10-28T02:01:29.591Z,96.88
2023-10-28T02:02:29.638Z,96.88
2023-10-28T02:03:29.604Z,96.88
2023-10-28T02:04:29.558Z,96.88
2023-10-28T02:05:29.542Z,96.98
2023-10-28T02:06:29.522Z,96.98
2023-10-28T02:07:29.523Z,97.08
2023-10-28T02:08:29.524Z,97.08
2023-10-28T02:09:29.806Z,97.08
2023-10-28T02:10:29.480Z,97.08
2023-10-28T02:11:29.551Z,97.08
2023-10-28T02:12:29.474Z,97.08
2023-10-28T02:13:29.471Z,97.08
2023-10-28T02:14:29.439Z,97.19
2023-10-28T02:15:29.500Z,97.19
2023-10-28T02:16:29.417Z,97.19
2023-10-28T02:17:29.440Z,97.19
2023-10-28T02:18:29.420Z,97.19
2023-10-28T02:19:29.392Z,97.19
2023-10-28T02:20:29.383Z,97.19
2023-10-28T02:21:29.371Z,97.08
2023-10-28T02:22:29.369Z,97.08
2023-10-28T02:23:29.374Z,97.19
2023-10-28T02:24:29.344Z,97.08
2023-10-28T02:25:29.325Z,97.19
2023-10-28T02:26:29.312Z,97.29
2023-10-28T02:27:29.317Z,97.39
2023-10-28T02:28:29.298Z,97.39
2023-10-28T02:29:29.287Z,97.49
2023-10-28T02:30:29.266Z,97.49
2023-10-28T02:31:29.297Z,97.60
2023-10-28T02:32:29.469Z,97.60
2023-10-28T02:33:29.260Z,97.60
2023-10-28T02:34:29.237Z,97.70
2023-10-28T02:35:29.226Z,97.70
2023-10-28T02:36:29.224Z,97.70
2023-10-28T02:37:29.218Z,97.70
2023-10-28T02:38:29.181Z,97.70
2023-10-28T02:39:29.181Z,97.70
2023-10-28T02:40:29.162Z,97.70
2023-10-28T02:41:29.171Z,97.80
2023-10-28T02:42:29.146Z,97.80
2023-10-28T02:43:29.136Z,97.80
2023-10-28T02:44:29.121Z,97.80
2023-10-28T02:45:29.132Z,97.80
2023-10-28T02:46:29.120Z,97.75
2023-10-28T02:47:31.085Z,97.80
2023-10-28T02:48:29.086Z,97.75
2023-10-28T02:49:29.137Z,97.75
2023-10-28T02:50:29.073Z,97.75
2023-10-28T02:51:29.067Z,97.86
2023-10-28T02:52:29.065Z,97.86
2023-10-28T02:53:29.031Z,97.75
2023-10-28T02:54:29.017Z,97.86
2023-10-28T02:55:29.028Z,97.96
2023-10-28T02:56:29.006Z,97.96
2023-10-28T02:57:28.993Z,97.96
2023-10-28T02:58:28.977Z,98.07
2023-10-28T02:59:28.970Z,98.07
2023-10-28T03:00:28.967Z,98.16
2023-10-28T03:01:28.961Z,98.16
2023-10-28T03:02:29.000Z,98.16
2023-10-28T03:03:29.060Z,98.27
2023-10-28T03:04:28.930Z,98.27
2023-10-28T03:05:28.922Z,98.27
2023-10-28T03:06:28.894Z,98.27
2023-10-28T03:07:28.916Z,98.27
2023-10-28T03:08:28.869Z,98.37
2023-10-28T03:09:28.898Z,98.37
2023-10-28T03:10:28.851Z,98.47
2023-10-28T03:11:28.840Z,98.47
2023-10-28T03:12:28.830Z,98.58
2023-10-28T03:13:28.814Z,98.68
2023-10-28T03:14:28.831Z,98.68
2023-10-28T03:15:28.874Z,98.78
2023-10-28T03:16:28.843Z,98.88
2023-10-28T03:17:28.793Z,98.88
2023-10-28T03:18:28.791Z,98.99
2023-10-28T03:19:28.766Z,98.99
2023-10-28T03:20:28.763Z,99.09
2023-10-28T03:21:28.727Z,99.09
2023-10-28T03:22:28.728Z,99.19
2023-10-28T03:23:28.729Z,99.19
2023-10-28T03:24:28.705Z,99.19
2023-10-28T03:25:28.686Z,99.19
2023-10-28T03:26:28.685Z,99.19
2023-10-28T03:27:28.665Z,99.19
2023-10-28T03:28:28.678Z,99.19
2023-10-28T03:29:28.645Z,99.19
2023-10-28T03:30:28.640Z,99.19
2023-10-28T03:31:28.622Z,99.09
2023-10-28T03:32:28.658Z,99.04
2023-10-28T03:33:28.640Z,98.94
2023-10-28T03:34:28.605Z,98.94
2023-10-28T03:35:28.595Z,98.94
2023-10-28T03:36:28.591Z,98.94
2023-10-28T03:37:28.581Z,98.83
2023-10-28T03:38:28.557Z,98.83
2023-10-28T03:39:28.563Z,98.74
2023-10-28T03:40:28.556Z,98.74
2023-10-28T03:41:28.521Z,98.74
2023-10-28T03:42:28.569Z,98.63
2023-10-28T03:43:28.502Z,98.63
2023-10-28T03:44:28.499Z,98.63
2023-10-28T03:45:28.492Z,98.63
2023-10-28T03:46:28.488Z,98.63
2023-10-28T03:47:28.485Z,98.63
2023-10-28T03:48:28.451Z,98.53
2023-10-28T03:49:28.439Z,98.53
2023-10-28T03:50:28.447Z,98.53
2023-10-28T03:51:28.429Z,98.53
2023-10-28T03:52:28.415Z,98.53
2023-10-28T03:53:28.397Z,98.63
2023-10-28T03:54:28.389Z,98.53
2023-10-28T03:55:28.378Z,98.53
2023-10-28T03:56:28.392Z,98.53
2023-10-28T03:57:28.351Z,98.63
2023-10-28T03:58:28.348Z,98.63
2023-10-28T03:59:28.328Z,98.63
2023-10-28T04:00:28.348Z,98.63
2023-10-28T04:01:28.364Z,98.74
2023-10-28T04:02:28.317Z,98.74
2023-10-28T04:03:28.300Z,98.74
2023-10-28T04:04:28.290Z,98.83
2023-10-28T04:05:28.289Z,98.83
2023-10-28T04:06:28.255Z,98.83
2023-10-28T04:07:28.242Z,98.94
2023-10-28T04:08:28.256Z,98.83
2023-10-28T04:09:28.225Z,98.94
2023-10-28T04:10:28.237Z,98.94
2023-10-28T04:11:28.199Z,99.04
2023-10-28T04:12:28.199Z,99.04
2023-10-28T04:13:28.275Z,99.15
2023-10-28T04:14:28.196Z,99.15
2023-10-28T04:15:28.173Z,99.25
2023-10-28T04:16:28.164Z,99.25
2023-10-28T04:17:28.163Z,99.25
2023-10-28T04:18:28.162Z,99.25
2023-10-28T04:19:28.145Z,99.35
2023-10-28T04:20:28.108Z,99.35
2023-10-28T04:21:28.108Z,99.35
2023-10-28T04:22:28.101Z,99.35
2023-10-28T04:23:28.086Z,99.45
2023-10-28T04:24:28.105Z,99.45
2023-10-28T04:25:28.051Z,99.45
2023-10-28T04:26:28.067Z,99.45
2023-10-28T04:27:28.032Z,99.45
2023-10-28T04:28:28.025Z,99.41
2023-10-28T04:29:28.032Z,99.51
2023-10-28T04:30:28.014Z,99.45
2023-10-28T04:31:27.997Z,99.51
2023-10-28T04:32:28.045Z,99.51
2023-10-28T04:33:28.000Z,99.51
2023-10-28T04:34:34.865Z,99.51
2023-10-28T04:35:29.437Z,99.51
2023-10-28T04:36:27.956Z,99.51
2023-10-28T04:37:27.922Z,99.51
2023-10-28T04:38:27.948Z,99.51
2023-10-28T04:39:27.905Z,99.51
2023-10-28T04:40:27.919Z,99.51
2023-10-28T04:41:27.884Z,99.51
2023-10-28T04:42:27.881Z,99.51
2023-10-28T04:43:27.884Z,99.41
2023-10-28T04:44:27.861Z,99.41
2023-10-28T04:45:27.839Z,99.41
2023-10-28T04:46:27.835Z,99.41
2023-10-28T04:47:27.859Z,99.41
2023-10-28T04:48:27.833Z,99.41
2023-10-28T04:49:27.798Z,99.41
2023-10-28T04:50:27.790Z,99.41
2023-10-28T04:51:27.784Z,99.41
2023-10-28T04:52:27.793Z,99.30
2023-10-28T04:53:27.759Z,99.30
2023-10-28T04:54:27.760Z,99.20
2023-10-28T04:55:27.733Z,99.30
2023-10-28T04:56:27.734Z,99.20
2023-10-28T04:57:27.759Z,99.10
2023-10-28T04:58:27.708Z,99.10
2023-10-28T04:59:27.697Z,99.10
2023-10-28T05:00:27.694Z,99.10
2023-10-28T05:01:27.714Z,99.10
2023-10-28T05:02:27.679Z,98.99
2023-10-28T05:03:27.677Z,98.95
2023-10-28T05:04:27.643Z,98.95
2023-10-28T05:05:27.638Z,98.95
2023-10-28T05:06:27.637Z,98.95
2023-10-28T05:07:27.606Z,98.85
2023-10-28T05:08:27.598Z,98.85
2023-10-28T05:09:27.584Z,98.85
2023-10-28T05:10:29.558Z,98.85
2023-10-28T05:11:27.586Z,98.74
2023-10-28T05:12:27.611Z,98.74
2023-10-28T05:13:27.543Z,98.74
2023-10-28T05:14:27.540Z,98.74
2023-10-28T05:15:27.538Z,98.74
2023-10-28T05:16:27.552Z,98.85
2023-10-28T05:17:27.526Z,98.74
2023-10-28T05:18:27.489Z,98.74
2023-10-28T05:19:27.480Z,98.85
2023-10-28T05:20:27.553Z,98.85
2023-10-28T05:21:27.467Z,98.95
2023-10-28T05:22:27.463Z,98.95
2023-10-28T05:23:27.439Z,98.95
2023-10-28T05:24:27.431Z,99.05
2023-10-28T05:25:27.437Z,99.05
2023-10-28T05:26:27.411Z,99.15
2023-10-28T05:27:27.399Z,99.15
2023-10-28T05:28:27.389Z,99.15
2023-10-28T05:29:27.393Z,99.26
2023-10-28T05:30:27.397Z,99.26
2023-10-28T05:31:27.376Z,99.26
2023-10-28T05:32:27.479Z,99.26
2023-10-28T05:33:27.352Z,99.26
2023-10-28T05:34:27.345Z,99.26
2023-10-28T05:35:27.314Z,99.26
2023-10-28T05:36:27.300Z,99.26
2023-10-28T05:37:27.287Z,99.26
2023-10-28T05:38:27.285Z,99.26
2023-10-28T05:39:27.299Z,99.26
2023-10-28T05:40:27.267Z,99.15
2023-10-28T05:41:27.246Z,99.15
2023-10-28T05:42:27.238Z,99.15
2023-10-28T05:43:27.239Z,99.05
2023-10-28T05:44:27.240Z,99.15
2023-10-28T05:45:27.206Z,99.15
2023-10-28T05:46:27.234Z,99.05
2023-10-28T05:47:27.180Z,99.15
2023-10-28T05:48:27.191Z,99.05
2023-10-28T05:49:27.160Z,99.05
2023-10-28T05:50:27.169Z,99.05
2023-10-28T05:51:27.142Z,99.05
2023-10-28T05:52:27.139Z,99.05
2023-10-28T05:53:27.152Z,98.85
2023-10-28T05:54:27.123Z,98.85
2023-10-28T05:55:27.106Z,98.85
2023-10-28T05:56:27.093Z,98.85
2023-10-28T05:57:27.106Z,98.85
2023-10-28T05:58:27.092Z,98.85
2023-10-28T05:59:27.056Z,98.74
2023-10-28T06:00:27.065Z,98.74
2023-10-28T06:01:27.072Z,98.74
2023-10-28T06:02:27.107Z,98.74
2023-10-28T06:03:27.012Z,98.74
2023-10-28T06:04:27.009Z,98.74
2023-10-28T06:05:27.054Z,98.74
2023-10-28T06:06:26.996Z,98.74
2023-10-28T06:07:26.992Z,98.74
2023-10-28T06:08:26.981Z,98.74
2023-10-28T06:09:26.958Z,98.74
2023-10-28T06:10:26.947Z,98.85
2023-10-28T06:11:26.947Z,98.85
2023-10-28T06:12:26.940Z,98.74
2023-10-28T06:13:26.909Z,98.74
2023-10-28T06:14:26.901Z,98.74
2023-10-28T06:15:26.895Z,98.65
2023-10-28T06:16:26.976Z,98.54
2023-10-28T06:17:26.924Z,98.54
2023-10-28T06:18:26.827Z,98.54
2023-10-28T06:19:26.796Z,98.54
2023-10-28T06:20:26.867Z,98.54
2023-10-28T06:21:26.840Z,98.54
2023-10-28T06:22:26.844Z,98.54
2023-10-28T06:23:26.810Z,98.54
2023-10-28T06:24:26.793Z,98.33
2023-10-28T06:25:26.803Z,98.33
2023-10-28T06:26:26.799Z,98.33
2023-10-28T06:27:26.761Z,98.33
2023-10-28T06:28:26.750Z,98.24
2023-10-28T06:29:26.793Z,98.33
2023-10-28T06:30:26.764Z,98.44
2023-10-28T06:31:26.712Z,98.54
2023-10-28T06:32:26.780Z,98.74
2023-10-28T06:33:26.695Z,98.74
2023-10-28T06:34:26.705Z,98.74
2023-10-28T06:35:26.665Z,98.74
2023-10-28T06:36:26.610Z,98.74
2023-10-28T06:37:26.650Z,98.85
2023-10-28T06:38:26.742Z,98.85
2023-10-28T06:39:26.648Z,98.95
2023-10-28T06:40:26.626Z,98.95
2023-10-28T06:41:26.613Z,98.85
2023-10-28T06:42:26.561Z,98.95
2023-10-28T06:43:26.548Z,99.05
2023-10-28T06:44:26.559Z,99.15
2023-10-28T06:45:26.573Z,99.15
2023-10-28T06:46:26.591Z,99.26
2023-10-28T06:47:26.546Z,99.26
2023-10-28T06:48:26.514Z,99.15
2023-10-28T06:49:26.492Z,99.05
2023-10-28T06:50:26.504Z,99.15
2023-10-28T06:51:26.461Z,99.15
2023-10-28T06:52:26.451Z,99.30
2023-10-28T06:53:26.492Z,99.26
2023-10-28T06:54:26.417Z,99.30
2023-10-28T06:55:26.411Z,99.20
2023-10-28T06:56:26.426Z,99.26
2023-10-28T06:57:26.385Z,99.26
2023-10-28T06:58:26.397Z,99.30
2023-10-28T06:59:26.365Z,99.26
2023-10-28T07:00:26.361Z,99.15
2023-10-28T07:01:26.377Z,99.20
2023-10-28T07:02:26.369Z,99.05
2023-10-28T07:03:26.399Z,99.05
2023-10-28T07:04:26.328Z,99.05
2023-10-28T07:05:26.298Z,99.05
2023-10-28T07:06:26.294Z,99.15
2023-10-28T07:07:26.301Z,99.05
2023-10-28T07:08:26.273Z,99.05
2023-10-28T07:09:26.292Z,98.95
2023-10-28T07:10:26.253Z,98.95
2023-10-28T07:11:26.244Z,98.95
2023-10-28T07:12:26.252Z,98.95
2023-10-28T07:13:26.220Z,98.95
2023-10-28T07:14:26.241Z,98.85
2023-10-28T07:15:26.195Z,98.65
2023-10-28T07:16:26.223Z,98.24
2023-10-28T07:17:26.293Z,98.24
2023-10-28T07:18:26.167Z,98.24
2023-10-28T07:19:26.157Z,98.13
2023-10-28T07:20:26.174Z,98.13
2023-10-28T07:21:26.149Z,98.03
2023-10-28T07:22:26.132Z,97.82
2023-10-28T07:23:26.138Z,97.72
2023-10-28T07:24:26.108Z,97.72
2023-10-28T07:25:26.095Z,97.31
2023-10-28T07:26:26.119Z,97.11
2023-10-28T07:27:27.553Z,97.11
2023-10-28T07:28:26.058Z,96.70
2023-10-28T07:29:26.051Z,96.59
2023-10-28T07:30:26.063Z,96.49
2023-10-28T07:31:26.050Z,96.39
2023-10-28T07:32:26.042Z,96.39
2023-10-28T07:33:26.014Z,96.19
2023-10-28T07:34:25.994Z,96.39
2023-10-28T07:35:26.033Z,96.49
2023-10-28T07:36:25.973Z,96.49
2023-10-28T07:37:25.964Z,96.49
2023-10-28T07:38:26.077Z,96.29
2023-10-28T07:39:25.943Z,96.19
2023-10-28T07:40:25.958Z,96.08
2023-10-28T07:41:25.968Z,96.29
2023-10-28T07:42:25.917Z,96.08
2023-10-28T07:43:25.908Z,95.98
2023-10-28T07:44:25.962Z,96.08
2023-10-28T07:45:25.913Z,96.08
2023-10-28T07:46:25.903Z,96.19
2023-10-28T07:47:25.882Z,96.29
2023-10-28T07:48:25.843Z,96.39
2023-10-28T07:49:25.881Z,96.39
2023-10-28T07:50:25.876Z,96.49
2023-10-28T07:51:25.875Z,96.39
2023-10-28T07:52:25.808Z,96.39
2023-10-28T07:53:25.879Z,96.19
2023-10-28T07:54:25.798Z,96.08
2023-10-28T07:55:25.774Z,96.08
2023-10-28T07:56:25.782Z,95.98
2023-10-28T07:57:25.752Z,95.88
2023-10-28T07:58:25.757Z,95.67
2023-10-28T07:59:25.764Z,95.37
2023-10-28T08:00:25.722Z,95.17
2023-10-28T08:01:25.711Z,95.37
2023-10-28T08:02:25.800Z,95.06
2023-10-28T08:03:25.833Z,95.17
2023-10-28T08:04:25.675Z,95.17
2023-10-28T08:05:25.724Z,95.17
2023-10-28T08:06:34.991Z,95.06
2023-10-28T08:07:26.656Z,95.06
2023-10-28T08:08:25.703Z,94.96
2023-10-28T08:09:25.626Z,94.85
2023-10-28T08:10:25.638Z,94.85
2023-10-28T08:11:25.617Z,95.17
2023-10-28T08:12:25.621Z,95.06
2023-10-28T08:13:25.604Z,95.26
2023-10-28T08:14:25.638Z,95.17
2023-10-28T08:15:25.606Z,95.26
2023-10-28T08:16:25.589Z,95.47
2023-10-28T08:17:27.226Z,95.57
2023-10-28T08:18:25.526Z,95.67
2023-10-28T08:19:25.519Z,95.78
2023-10-28T08:20:25.549Z,95.78
2023-10-28T08:21:25.500Z,95.78
2023-10-28T08:22:25.519Z,95.78
2023-10-28T08:23:25.499Z,95.06
2023-10-28T08:24:25.461Z,95.06
2023-10-28T08:25:25.475Z,95.17
2023-10-28T08:26:25.469Z,95.06
2023-10-28T08:27:25.450Z,95.17
2023-10-28T08:28:25.418Z,95.26
2023-10-28T08:29:25.463Z,95.47
2023-10-28T08:30:26.761Z,95.47
2023-10-28T08:31:25.437Z,95.57
2023-10-28T08:32:25.426Z,95.78
2023-10-28T08:33:25.375Z,95.67
2023-10-28T08:34:25.356Z,95.78
2023-10-28T08:35:25.358Z,95.88
2023-10-28T08:36:25.346Z,95.98
2023-10-28T08:37:25.329Z,96.08
2023-10-28T08:38:25.336Z,96.19
2023-10-28T08:39:25.308Z,96.19
2023-10-28T08:40:25.309Z,96.29
2023-10-28T08:41:25.333Z,96.59
2023-10-28T08:42:25.271Z,96.70
2023-10-28T08:43:25.266Z,96.80
2023-10-28T08:44:25.279Z,96.91
2023-10-28T08:45:25.275Z,96.91
2023-10-28T08:46:25.250Z,96.91
2023-10-28T08:47:25.258Z,97.00
2023-10-28T08:48:25.317Z,97.11
2023-10-28T08:49:25.200Z,97.00
2023-10-28T08:50:25.220Z,96.91
2023-10-28T08:51:25.179Z,97.00
2023-10-28T08:52:25.196Z,97.11
2023-10-28T08:53:25.178Z,97.21
2023-10-28T08:54:25.165Z,97.31
2023-10-28T08:55:25.164Z,97.31
2023-10-28T08:56:25.138Z,97.21
2023-10-28T08:57:25.131Z,97.31
2023-10-28T08:58:25.105Z,97.31
2023-10-28T08:59:25.154Z,97.41
2023-10-28T09:00:25.083Z,97.41
2023-10-28T09:01:25.139Z,97.52
2023-10-28T09:02:25.137Z,97.52
2023-10-28T09:03:25.110Z,97.52
2023-10-28T09:04:25.070Z,97.52
2023-10-28T09:05:25.107Z,97.41
2023-10-28T09:06:25.016Z,97.47
2023-10-28T09:07:25.017Z,97.47
2023-10-28T09:08:25.039Z,97.37
2023-10-28T09:09:25.038Z,97.27
2023-10-28T09:10:24.985Z,97.16
2023-10-28T09:11:25.024Z,97.06
2023-10-28T09:12:24.991Z,97.06
2023-10-28T09:13:24.985Z,97.16
2023-10-28T09:14:24.946Z,97.27
2023-10-28T09:15:24.938Z,97.27
2023-10-28T09:16:24.912Z,97.37
2023-10-28T09:17:25.024Z,97.27
2023-10-28T09:18:24.931Z,97.27
2023-10-28T09:19:24.881Z,97.47
2023-10-28T09:20:24.874Z,97.47
2023-10-28T09:21:24.862Z,97.37
2023-10-28T09:22:24.848Z,97.37
2023-10-28T09:23:24.904Z,97.37
2023-10-28T09:24:24.825Z,97.27
2023-10-28T09:25:24.830Z,97.27
2023-10-28T09:26:24.817Z,97.27
2023-10-28T09:27:24.826Z,97.06
2023-10-28T09:28:24.802Z,97.16
2023-10-28T09:29:24.819Z,97.06
2023-10-28T09:30:24.764Z,96.96
2023-10-28T09:31:24.768Z,96.92
2023-10-28T09:32:24.782Z,97.02
2023-10-28T09:33:24.811Z,97.12
2023-10-28T09:34:24.724Z,97.22
2023-10-28T09:35:24.772Z,97.22
2023-10-28T09:36:24.704Z,96.81
2023-10-28T09:37:24.721Z,96.92
2023-10-28T09:38:24.702Z,96.92
2023-10-28T09:39:24.674Z,96.20
2023-10-28T09:40:24.669Z,95.89
2023-10-28T09:41:24.751Z,96.00
2023-10-28T09:42:24.656Z,96.00
2023-10-28T09:43:24.631Z,96.10
2023-10-28T09:44:24.632Z,96.20
2023-10-28T09:45:24.619Z,96.10
2023-10-28T09:46:24.621Z,95.89
2023-10-28T09:47:24.633Z,96.10
2023-10-28T09:48:24.593Z,96.00
2023-10-28T09:49:24.578Z,96.00
2023-10-28T09:50:24.628Z,96.00
2023-10-28T09:51:24.564Z,96.00
2023-10-28T09:52:24.541Z,96.00
2023-10-28T09:53:24.595Z,95.79
2023-10-28T09:54:24.515Z,95.48
2023-10-28T09:55:24.527Z,95.59
2023-10-28T09:56:24.544Z,95.79
2023-10-28T09:57:24.487Z,95.85
2023-10-28T09:58:24.481Z,95.95
2023-10-28T09:59:24.496Z,95.95
2023-10-28T10:00:24.754Z,95.85
2023-10-28T10:01:24.511Z,95.85
2023-10-28T10:02:24.456Z,95.95
2023-10-28T10:03:24.458Z,95.75
2023-10-28T10:04:24.441Z,95.64
2023-10-28T10:05:24.476Z,95.75
2023-10-28T10:06:24.389Z,95.95
2023-10-28T10:07:24.388Z,96.05
2023-10-28T10:08:24.393Z,96.05
2023-10-28T10:09:24.378Z,96.15
2023-10-28T10:10:24.349Z,96.15
2023-10-28T10:11:24.378Z,96.11
2023-10-28T10:12:24.351Z,96.31
2023-10-28T10:13:24.321Z,96.11
2023-10-28T10:14:24.333Z,96.11
2023-10-28T10:15:24.304Z,96.11
2023-10-28T10:16:24.282Z,95.80
2023-10-28T10:17:24.361Z,95.70
2023-10-28T10:18:24.281Z,95.70
2023-10-28T10:19:24.279Z,95.39
2023-10-28T10:20:24.274Z,95.29
2023-10-28T10:21:24.237Z,95.50
2023-10-28T10:22:24.302Z,95.60
2023-10-28T10:23:24.293Z,95.39
2023-10-28T10:24:24.201Z,95.39
2023-10-28T10:25:24.194Z,95.19
2023-10-28T10:26:24.223Z,94.68
2023-10-28T10:27:24.179Z,94.48
2023-10-28T10:28:24.189Z,94.27
2023-10-28T10:29:24.179Z,94.37
2023-10-28T10:30:24.155Z,94.37
2023-10-28T10:31:24.139Z,94.48
2023-10-28T10:32:24.182Z,94.37
2023-10-28T10:33:24.130Z,94.48
2023-10-28T10:34:24.098Z,94.27
2023-10-28T10:35:24.129Z,94.27
2023-10-28T10:36:24.082Z,94.58
2023-10-28T10:37:24.104Z,94.37
2023-10-28T10:38:24.101Z,94.48
2023-10-28T10:39:24.070Z,94.68
2023-10-28T10:40:24.039Z,94.58
2023-10-28T10:41:24.070Z,94.68
2023-10-28T10:42:24.041Z,94.78
2023-10-28T10:43:24.017Z,94.84
2023-10-28T10:44:24.068Z,94.84
2023-10-28T10:45:23.988Z,94.94
2023-10-28T10:46:23.984Z,95.15
2023-10-28T10:47:23.999Z,95.25
2023-10-28T10:48:23.956Z,94.64
2023-10-28T10:49:23.948Z,94.64
2023-10-28T10:50:24.005Z,94.84
2023-10-28T10:51:23.936Z,95.04
2023-10-28T10:52:23.913Z,95.25
2023-10-28T10:53:23.982Z,95.35
2023-10-28T10:54:23.888Z,95.15
2023-10-28T10:55:25.297Z,95.04
2023-10-28T10:56:23.912Z,95.04
2023-10-28T10:57:23.865Z,95.25
2023-10-28T10:58:23.846Z,95.35
2023-10-28T10:59:23.870Z,95.04
2023-10-28T11:00:23.847Z,95.15
2023-10-28T11:01:23.849Z,95.15
2023-10-28T11:02:23.982Z,95.25
2023-10-28T11:03:23.843Z,95.04
2023-10-28T11:04:23.789Z,95.15
2023-10-28T11:05:23.834Z,95.15
2023-10-28T11:06:23.761Z,95.25
2023-10-28T11:07:23.757Z,95.45
2023-10-28T11:08:23.793Z,95.56
2023-10-28T11:09:23.756Z,95.56
2023-10-28T11:10:23.789Z,95.15
2023-10-28T11:11:23.768Z,95.35
2023-10-28T11:12:23.702Z,95.35
2023-10-28T11:13:23.757Z,95.56
2023-10-28T11:14:23.725Z,95.56
2023-10-28T11:15:23.708Z,95.65
2023-10-28T11:16:23.665Z,95.86
2023-10-28T11:17:23.685Z,95.86
2023-10-28T11:18:23.634Z,95.56
2023-10-28T11:19:23.639Z,95.56
2023-10-28T11:20:23.687Z,95.45
2023-10-28T11:21:23.609Z,95.35
2023-10-28T11:22:23.589Z,95.56
2023-10-28T11:23:23.620Z,95.56
2023-10-28T11:24:23.603Z,95.65
2023-10-28T11:25:23.562Z,95.65
2023-10-28T11:26:23.592Z,95.56
2023-10-28T11:27:23.585Z,95.45
2023-10-28T11:28:23.542Z,95.45
2023-10-28T11:29:23.541Z,95.29
2023-10-28T11:30:23.508Z,95.50
2023-10-28T11:31:23.543Z,95.65
2023-10-28T11:32:23.553Z,95.86
2023-10-28T11:33:23.536Z,95.96
2023-10-28T11:34:23.479Z,95.96
2023-10-28T11:35:23.507Z,95.96
2023-10-28T11:36:23.441Z,95.96
2023-10-28T11:37:23.432Z,95.96
2023-10-28T11:38:23.467Z,96.17
2023-10-28T11:39:23.414Z,96.27
2023-10-28T11:40:23.405Z,96.27
2023-10-28T11:41:23.409Z,95.96
2023-10-28T11:42:23.397Z,96.06
2023-10-28T11:43:23.388Z,96.17
2023-10-28T11:44:23.394Z,96.17
2023-10-28T11:45:23.373Z,96.17
2023-10-28T11:46:23.343Z,96.17
2023-10-28T11:47:23.385Z,96.27
2023-10-28T11:48:23.328Z,96.17
2023-10-28T11:49:23.308Z,96.17
2023-10-28T11:50:23.311Z,96.17
2023-10-28T11:51:23.281Z,96.17
2023-10-28T11:52:23.294Z,96.27
2023-10-28T11:53:23.299Z,96.37
2023-10-28T11:54:23.260Z,96.17
2023-10-28T11:55:23.245Z,95.96
2023-10-28T11:56:23.289Z,96.06
2023-10-28T11:57:23.239Z,96.17
2023-10-28T11:58:23.217Z,96.17
2023-10-28T11:59:23.280Z,95.76
2023-10-28T12:00:23.192Z,95.86
2023-10-28T12:01:23.250Z,96.06
2023-10-28T12:02:23.219Z,96.06
2023-10-28T12:03:23.198Z,96.17
2023-10-28T12:04:23.160Z,96.27
2023-10-28T12:05:23.183Z,96.17
2023-10-28T12:06:30.184Z,96.17
2023-10-28T12:07:24.115Z,96.17
2023-10-28T12:08:23.132Z,96.27
2023-10-28T12:09:23.095Z,96.37
2023-10-28T12:10:23.088Z,96.27
2023-10-28T12:11:23.120Z,96.27
2023-10-28T12:12:23.067Z,96.17
2023-10-28T12:13:23.056Z,96.06
2023-10-28T12:14:23.056Z,96.17
2023-10-28T12:15:23.045Z,96.27
2023-10-28T12:16:23.077Z,96.27
2023-10-28T12:17:23.079Z,96.06
2023-10-28T12:18:22.998Z,96.17
2023-10-28T12:19:22.989Z,96.37
2023-10-28T12:20:23.016Z,96.47
2023-10-28T12:21:22.992Z,96.47
2023-10-28T12:22:22.962Z,96.58
2023-10-28T12:23:23.050Z,96.47
2023-10-28T12:24:22.939Z,96.58
2023-10-28T12:25:22.941Z,96.58
2023-10-28T12:26:22.975Z,96.58
2023-10-28T12:27:22.907Z,96.58
2023-10-28T12:28:22.893Z,96.78
2023-10-28T12:29:22.945Z,96.88
2023-10-28T12:30:22.881Z,96.58
2023-10-28T12:31:22.913Z,96.53
2023-10-28T12:32:22.886Z,96.63
2023-10-28T12:33:22.861Z,96.63
2023-10-28T12:34:22.855Z,96.02
2023-10-28T12:35:22.857Z,95.81
2023-10-28T12:36:22.816Z,95.81
2023-10-28T12:37:22.798Z,95.92
2023-10-28T12:38:22.849Z,95.92
2023-10-28T12:39:22.790Z,96.02
2023-10-28T12:40:22.771Z,95.51
2023-10-28T12:41:22.796Z,95.31
2023-10-28T12:42:22.749Z,95.20
2023-10-28T12:43:22.747Z,95.31
2023-10-28T12:44:22.782Z,95.31
2023-10-28T12:45:22.706Z,95.10
2023-10-28T12:46:22.739Z,95.31
2023-10-28T12:47:22.714Z,95.41
2023-10-28T12:48:22.700Z,95.72
2023-10-28T12:49:22.662Z,95.81
2023-10-28T12:50:22.689Z,95.81
2023-10-28T12:51:22.640Z,95.92
2023-10-28T12:52:22.643Z,95.92